sensor_id;sensor_type;location;lat;lon;timestamp;temperature;humidity
4390;DHT22;2209;48.982;8.406;2023-06-26T00:02:19;28.00;75.50
4390;DHT22;2209;48.982;8.406;2023-06-26T00:04:42;28.00;75.60
4390;DHT22;2209;48.982;8.406;2023-06-26T00:07:04;28.00;75.80
4390;DHT22;2209;48.982;8.406;2023-06-26T00:09:26;28.00;75.90
4390;DHT22;2209;48.982;8.406;2023-06-26T00:11:49;27.90;75.90
4390;DHT22;2209;48.982;8.406;2023-06-26T00:14:13;27.90;76.00
4390;DHT22;2209;48.982;8.406;2023-06-26T00:16:36;27.90;76.00
4390;DHT22;2209;48.982;8.406;2023-06-26T00:18:58;27.90;76.10
4390;DHT22;2209;48.982;8.406;2023-06-26T00:21:20;27.80;76.10
4390;DHT22;2209;48.982;8.406;2023-06-26T00:23:42;27.80;76.20
4390;DHT22;2209;48.982;8.406;2023-06-26T00:26:04;27.80;76.30
4390;DHT22;2209;48.982;8.406;2023-06-26T00:28:26;27.80;76.50
4390;DHT22;2209;48.982;8.406;2023-06-26T00:30:50;27.80;76.70
4390;DHT22;2209;48.982;8.406;2023-06-26T00:33:12;27.70;76.70
4390;DHT22;2209;48.982;8.406;2023-06-26T00:35:34;27.70;76.70
4390;DHT22;2209;48.982;8.406;2023-06-26T00:37:56;27.70;76.70
4390;DHT22;2209;48.982;8.406;2023-06-26T00:40:19;27.60;76.80
4390;DHT22;2209;48.982;8.406;2023-06-26T00:42:41;27.60;76.80
4390;DHT22;2209;48.982;8.406;2023-06-26T00:45:03;27.60;76.90
4390;DHT22;2209;48.982;8.406;2023-06-26T00:47:27;27.60;76.90
4390;DHT22;2209;48.982;8.406;2023-06-26T00:49:49;27.60;77.00
4390;DHT22;2209;48.982;8.406;2023-06-26T00:52:11;27.50;77.00
4390;DHT22;2209;48.982;8.406;2023-06-26T00:54:33;27.50;76.40
4390;DHT22;2209;48.982;8.406;2023-06-26T00:56:55;27.50;75.10
4390;DHT22;2209;48.982;8.406;2023-06-26T00:59:17;27.50;74.10
4390;DHT22;2209;48.982;8.406;2023-06-26T01:01:39;27.50;73.30
4390;DHT22;2209;48.982;8.406;2023-06-26T01:04:03;27.50;72.90
4390;DHT22;2209;48.982;8.406;2023-06-26T01:06:28;27.50;73.10
4390;DHT22;2209;48.982;8.406;2023-06-26T01:08:52;27.50;74.10
4390;DHT22;2209;48.982;8.406;2023-06-26T01:11:14;27.50;75.00
4390;DHT22;2209;48.982;8.406;2023-06-26T01:13:37;27.40;75.50
4390;DHT22;2209;48.982;8.406;2023-06-26T01:16:00;27.40;75.80
4390;DHT22;2209;48.982;8.406;2023-06-26T01:21:43;27.30;76.50
4390;DHT22;2209;48.982;8.406;2023-06-26T01:24:13;27.30;76.80
4390;DHT22;2209;48.982;8.406;2023-06-26T01:26:44;27.20;77.00
4390;DHT22;2209;48.982;8.406;2023-06-26T01:29:08;27.20;77.10
4390;DHT22;2209;48.982;8.406;2023-06-26T01:31:32;27.20;77.20
4390;DHT22;2209;48.982;8.406;2023-06-26T01:33:57;27.10;77.20
4390;DHT22;2209;48.982;8.406;2023-06-26T01:36:21;27.10;77.30
4390;DHT22;2209;48.982;8.406;2023-06-26T01:38:44;27.10;77.40
4390;DHT22;2209;48.982;8.406;2023-06-26T01:41:06;27.00;77.20
4390;DHT22;2209;48.982;8.406;2023-06-26T01:43:40;27.00;76.30
4390;DHT22;2209;48.982;8.406;2023-06-26T01:46:06;27.00;74.90
4390;DHT22;2209;48.982;8.406;2023-06-26T01:48:32;27.00;73.60
4390;DHT22;2209;48.982;8.406;2023-06-26T01:50:58;27.10;72.70
4390;DHT22;2209;48.982;8.406;2023-06-26T01:53:24;27.00;72.90
4390;DHT22;2209;48.982;8.406;2023-06-26T01:55:48;27.00;74.10
4390;DHT22;2209;48.982;8.406;2023-06-26T01:58:13;27.00;74.70
4390;DHT22;2209;48.982;8.406;2023-06-26T02:00:39;26.90;75.00
4390;DHT22;2209;48.982;8.406;2023-06-26T02:03:01;26.90;75.50
4390;DHT22;2209;48.982;8.406;2023-06-26T02:05:24;26.90;75.90
4390;DHT22;2209;48.982;8.406;2023-06-26T02:07:46;26.80;76.30
4390;DHT22;2209;48.982;8.406;2023-06-26T02:10:09;26.80;76.60
4390;DHT22;2209;48.982;8.406;2023-06-26T02:12:31;26.80;76.90
4390;DHT22;2209;48.982;8.406;2023-06-26T02:14:53;26.70;77.00
4390;DHT22;2209;48.982;8.406;2023-06-26T02:17:16;26.70;77.10
4390;DHT22;2209;48.982;8.406;2023-06-26T02:19:38;26.60;77.90
4390;DHT22;2209;48.982;8.406;2023-06-26T02:22:08;26.60;77.40
4390;DHT22;2209;48.982;8.406;2023-06-26T02:24:30;26.60;77.50
4390;DHT22;2209;48.982;8.406;2023-06-26T02:26:53;26.50;77.50
4390;DHT22;2209;48.982;8.406;2023-06-26T02:29:15;26.50;77.60
4390;DHT22;2209;48.982;8.406;2023-06-26T02:31:37;26.40;77.70
4390;DHT22;2209;48.982;8.406;2023-06-26T02:34:01;26.40;77.70
4390;DHT22;2209;48.982;8.406;2023-06-26T02:36:23;26.40;77.80
4390;DHT22;2209;48.982;8.406;2023-06-26T02:38:45;26.40;77.90
4390;DHT22;2209;48.982;8.406;2023-06-26T02:41:07;26.40;77.90
4390;DHT22;2209;48.982;8.406;2023-06-26T02:43:29;26.30;77.90
4390;DHT22;2209;48.982;8.406;2023-06-26T02:45:51;26.30;77.90
4390;DHT22;2209;48.982;8.406;2023-06-26T02:48:13;26.30;77.90
4390;DHT22;2209;48.982;8.406;2023-06-26T02:50:36;26.30;78.10
4390;DHT22;2209;48.982;8.406;2023-06-26T02:52:58;26.20;78.10
4390;DHT22;2209;48.982;8.406;2023-06-26T02:55:20;26.20;78.30
4390;DHT22;2209;48.982;8.406;2023-06-26T02:57:42;26.20;78.50
4390;DHT22;2209;48.982;8.406;2023-06-26T03:00:05;26.10;78.50
4390;DHT22;2209;48.982;8.406;2023-06-26T03:02:29;26.10;78.50
4390;DHT22;2209;48.982;8.406;2023-06-26T03:04:51;26.10;78.60
4390;DHT22;2209;48.982;8.406;2023-06-26T03:07:15;26.10;78.50
4390;DHT22;2209;48.982;8.406;2023-06-26T03:09:37;26.10;78.50
4390;DHT22;2209;48.982;8.406;2023-06-26T03:11:59;26.10;78.50
4390;DHT22;2209;48.982;8.406;2023-06-26T03:14:21;26.10;78.50
4390;DHT22;2209;48.982;8.406;2023-06-26T03:16:43;26.10;78.50
4390;DHT22;2209;48.982;8.406;2023-06-26T03:19:05;26.10;78.60
4390;DHT22;2209;48.982;8.406;2023-06-26T03:21:27;26.00;78.60
4390;DHT22;2209;48.982;8.406;2023-06-26T03:23:51;26.00;78.70
4390;DHT22;2209;48.982;8.406;2023-06-26T03:26:13;26.00;78.70
4390;DHT22;2209;48.982;8.406;2023-06-26T03:28:35;26.00;78.70
4390;DHT22;2209;48.982;8.406;2023-06-26T03:30:57;25.90;78.80
4390;DHT22;2209;48.982;8.406;2023-06-26T03:33:19;25.90;78.90
4390;DHT22;2209;48.982;8.406;2023-06-26T03:35:41;25.90;79.00
4390;DHT22;2209;48.982;8.406;2023-06-26T03:38:04;25.80;79.10
4390;DHT22;2209;48.982;8.406;2023-06-26T03:40:27;25.80;79.20
4390;DHT22;2209;48.982;8.406;2023-06-26T03:42:50;25.80;79.20
4390;DHT22;2209;48.982;8.406;2023-06-26T03:45:12;25.70;79.20
4390;DHT22;2209;48.982;8.406;2023-06-26T03:47:34;25.70;79.40
4390;DHT22;2209;48.982;8.406;2023-06-26T03:49:56;25.70;79.40
4390;DHT22;2209;48.982;8.406;2023-06-26T03:52:18;25.70;79.50
4390;DHT22;2209;48.982;8.406;2023-06-26T03:54:40;25.70;79.60
4390;DHT22;2209;48.982;8.406;2023-06-26T03:57:04;25.70;79.60
4390;DHT22;2209;48.982;8.406;2023-06-26T03:59:26;25.60;79.70
4390;DHT22;2209;48.982;8.406;2023-06-26T04:01:48;25.60;79.60
4390;DHT22;2209;48.982;8.406;2023-06-26T04:04:10;25.50;78.60
4390;DHT22;2209;48.982;8.406;2023-06-26T04:06:32;25.50;77.30
4390;DHT22;2209;48.982;8.406;2023-06-26T04:08:57;25.60;76.10
4390;DHT22;2209;48.982;8.406;2023-06-26T04:11:19;25.60;75.30
4390;DHT22;2209;48.982;8.406;2023-06-26T04:13:43;25.60;75.20
4390;DHT22;2209;48.982;8.406;2023-06-26T04:16:05;25.60;74.10
4390;DHT22;2209;48.982;8.406;2023-06-26T04:18:27;25.70;74.10
4390;DHT22;2209;48.982;8.406;2023-06-26T04:21:09;25.70;74.00
4390;DHT22;2209;48.982;8.406;2023-06-26T04:23:32;25.70;74.10
4390;DHT22;2209;48.982;8.406;2023-06-26T04:25:57;25.70;74.50
4390;DHT22;2209;48.982;8.406;2023-06-26T04:28:20;25.70;74.70
4390;DHT22;2209;48.982;8.406;2023-06-26T04:30:43;25.70;74.80
4390;DHT22;2209;48.982;8.406;2023-06-26T04:33:07;25.70;75.10
4390;DHT22;2209;48.982;8.406;2023-06-26T04:35:33;25.70;75.50
4390;DHT22;2209;48.982;8.406;2023-06-26T04:37:57;25.70;75.90
4390;DHT22;2209;48.982;8.406;2023-06-26T04:40:19;25.70;76.30
4390;DHT22;2209;48.982;8.406;2023-06-26T04:42:41;25.70;76.60
4390;DHT22;2209;48.982;8.406;2023-06-26T04:45:04;25.70;76.70
4390;DHT22;2209;48.982;8.406;2023-06-26T04:47:27;25.70;76.80
4390;DHT22;2209;48.982;8.406;2023-06-26T04:49:50;25.70;76.60
4390;DHT22;2209;48.982;8.406;2023-06-26T04:52:12;25.70;76.30
4390;DHT22;2209;48.982;8.406;2023-06-26T04:54:35;25.70;76.20
4390;DHT22;2209;48.982;8.406;2023-06-26T04:56:57;25.70;75.90
4390;DHT22;2209;48.982;8.406;2023-06-26T04:59:20;25.70;75.60
4390;DHT22;2209;48.982;8.406;2023-06-26T05:01:42;25.60;75.40
4390;DHT22;2209;48.982;8.406;2023-06-26T05:04:11;25.70;75.20
4390;DHT22;2209;48.982;8.406;2023-06-26T05:06:33;25.60;74.80
4390;DHT22;2209;48.982;8.406;2023-06-26T05:08:56;25.60;74.60
4390;DHT22;2209;48.982;8.406;2023-06-26T05:11:18;25.60;74.50
4390;DHT22;2209;48.982;8.406;2023-06-26T05:13:40;25.60;74.50
4390;DHT22;2209;48.982;8.406;2023-06-26T05:16:02;25.50;74.70
4390;DHT22;2209;48.982;8.406;2023-06-26T05:18:24;25.50;75.10
4390;DHT22;2209;48.982;8.406;2023-06-26T05:20:49;25.50;75.50
4390;DHT22;2209;48.982;8.406;2023-06-26T05:23:16;25.50;75.80
4390;DHT22;2209;48.982;8.406;2023-06-26T05:25:39;25.50;76.20
4390;DHT22;2209;48.982;8.406;2023-06-26T05:28:02;25.50;76.50
4390;DHT22;2209;48.982;8.406;2023-06-26T05:30:27;25.50;76.80
4390;DHT22;2209;48.982;8.406;2023-06-26T05:32:49;25.50;77.20
4390;DHT22;2209;48.982;8.406;2023-06-26T05:35:13;25.50;77.50
4390;DHT22;2209;48.982;8.406;2023-06-26T05:37:36;25.50;77.80
4390;DHT22;2209;48.982;8.406;2023-06-26T05:39:59;25.50;78.10
4390;DHT22;2209;48.982;8.406;2023-06-26T05:42:21;25.50;78.50
4390;DHT22;2209;48.982;8.406;2023-06-26T05:44:44;25.50;78.60
4390;DHT22;2209;48.982;8.406;2023-06-26T05:47:06;25.50;78.90
4390;DHT22;2209;48.982;8.406;2023-06-26T05:49:28;25.50;79.10
4390;DHT22;2209;48.982;8.406;2023-06-26T05:51:50;25.50;79.30
4390;DHT22;2209;48.982;8.406;2023-06-26T05:54:15;25.50;79.40
4390;DHT22;2209;48.982;8.406;2023-06-26T05:56:37;25.50;80.20
4390;DHT22;2209;48.982;8.406;2023-06-26T05:58:59;25.50;79.60
4390;DHT22;2209;48.982;8.406;2023-06-26T06:01:22;25.50;79.70
4390;DHT22;2209;48.982;8.406;2023-06-26T06:03:45;25.40;79.60
4390;DHT22;2209;48.982;8.406;2023-06-26T06:06:07;25.50;79.70
4390;DHT22;2209;48.982;8.406;2023-06-26T06:08:29;25.40;79.60
4390;DHT22;2209;48.982;8.406;2023-06-26T06:10:53;25.40;79.60
4390;DHT22;2209;48.982;8.406;2023-06-26T06:13:15;25.40;79.60
4390;DHT22;2209;48.982;8.406;2023-06-26T06:15:37;25.40;79.60
4390;DHT22;2209;48.982;8.406;2023-06-26T06:17:59;25.40;79.60
4390;DHT22;2209;48.982;8.406;2023-06-26T06:20:21;25.40;79.50
4390;DHT22;2209;48.982;8.406;2023-06-26T06:22:43;25.40;79.50
4390;DHT22;2209;48.982;8.406;2023-06-26T06:25:06;25.40;79.50
4390;DHT22;2209;48.982;8.406;2023-06-26T06:27:29;25.40;79.40
4390;DHT22;2209;48.982;8.406;2023-06-26T06:29:51;25.40;79.40
4390;DHT22;2209;48.982;8.406;2023-06-26T06:32:13;25.30;79.30
4390;DHT22;2209;48.982;8.406;2023-06-26T06:34:36;25.30;79.30
4390;DHT22;2209;48.982;8.406;2023-06-26T06:36:58;25.30;79.40
4390;DHT22;2209;48.982;8.406;2023-06-26T06:39:20;25.30;79.40
4390;DHT22;2209;48.982;8.406;2023-06-26T06:41:42;25.30;79.40
4390;DHT22;2209;48.982;8.406;2023-06-26T06:44:05;25.30;79.50
4390;DHT22;2209;48.982;8.406;2023-06-26T06:46:27;25.30;79.50
4390;DHT22;2209;48.982;8.406;2023-06-26T06:48:49;25.30;79.70
4390;DHT22;2209;48.982;8.406;2023-06-26T06:51:11;25.30;79.70
4390;DHT22;2209;48.982;8.406;2023-06-26T06:53:33;25.30;79.80
4390;DHT22;2209;48.982;8.406;2023-06-26T06:55:55;25.30;79.80
4390;DHT22;2209;48.982;8.406;2023-06-26T06:58:17;25.30;79.90
4390;DHT22;2209;48.982;8.406;2023-06-26T07:00:43;25.30;80.00
4390;DHT22;2209;48.982;8.406;2023-06-26T07:03:05;25.30;80.10
4390;DHT22;2209;48.982;8.406;2023-06-26T07:05:27;25.30;80.10
4390;DHT22;2209;48.982;8.406;2023-06-26T07:07:49;25.30;80.20
4390;DHT22;2209;48.982;8.406;2023-06-26T07:10:13;25.30;80.40
4390;DHT22;2209;48.982;8.406;2023-06-26T07:12:35;25.30;80.50
4390;DHT22;2209;48.982;8.406;2023-06-26T07:14:58;25.30;80.60
4390;DHT22;2209;48.982;8.406;2023-06-26T07:17:21;25.30;80.60
4390;DHT22;2209;48.982;8.406;2023-06-26T07:19:43;25.30;80.70
4390;DHT22;2209;48.982;8.406;2023-06-26T07:22:05;25.30;80.80
4390;DHT22;2209;48.982;8.406;2023-06-26T07:24:27;25.30;80.90
4390;DHT22;2209;48.982;8.406;2023-06-26T07:26:49;25.30;80.80
4390;DHT22;2209;48.982;8.406;2023-06-26T07:29:11;25.30;80.70
4390;DHT22;2209;48.982;8.406;2023-06-26T07:31:33;25.30;80.40
4390;DHT22;2209;48.982;8.406;2023-06-26T07:33:57;25.30;80.10
4390;DHT22;2209;48.982;8.406;2023-06-26T07:36:19;25.30;80.00
4390;DHT22;2209;48.982;8.406;2023-06-26T07:38:41;25.30;80.10
4390;DHT22;2209;48.982;8.406;2023-06-26T07:41:03;25.40;80.00
4390;DHT22;2209;48.982;8.406;2023-06-26T07:43:25;25.40;79.60
4390;DHT22;2209;48.982;8.406;2023-06-26T07:45:48;25.40;79.30
4390;DHT22;2209;48.982;8.406;2023-06-26T07:48:12;25.40;79.30
4390;DHT22;2209;48.982;8.406;2023-06-26T07:50:35;25.40;79.30
4390;DHT22;2209;48.982;8.406;2023-06-26T07:52:57;25.40;79.30
4390;DHT22;2209;48.982;8.406;2023-06-26T07:55:20;25.40;79.30
4390;DHT22;2209;48.982;8.406;2023-06-26T07:57:42;25.40;79.30
4390;DHT22;2209;48.982;8.406;2023-06-26T08:00:07;25.40;79.20
4390;DHT22;2209;48.982;8.406;2023-06-26T08:02:29;25.40;79.10
4390;DHT22;2209;48.982;8.406;2023-06-26T08:04:51;25.40;79.40
4390;DHT22;2209;48.982;8.406;2023-06-26T08:07:15;25.40;79.70
4390;DHT22;2209;48.982;8.406;2023-06-26T08:09:37;25.40;80.00
4390;DHT22;2209;48.982;8.406;2023-06-26T08:11:59;25.50;80.30
4390;DHT22;2209;48.982;8.406;2023-06-26T08:14:21;25.50;80.60
4390;DHT22;2209;48.982;8.406;2023-06-26T08:16:44;25.50;81.00
4390;DHT22;2209;48.982;8.406;2023-06-26T08:19:07;25.50;81.20
4390;DHT22;2209;48.982;8.406;2023-06-26T08:21:29;25.50;81.40
4390;DHT22;2209;48.982;8.406;2023-06-26T08:23:52;25.50;81.90
4390;DHT22;2209;48.982;8.406;2023-06-26T08:26:14;25.50;82.20
4390;DHT22;2209;48.982;8.406;2023-06-26T08:28:37;25.50;82.40
4390;DHT22;2209;48.982;8.406;2023-06-26T08:30:59;25.50;82.30
4390;DHT22;2209;48.982;8.406;2023-06-26T08:33:21;25.50;82.50
4390;DHT22;2209;48.982;8.406;2023-06-26T08:35:43;25.50;82.70
4390;DHT22;2209;48.982;8.406;2023-06-26T08:38:05;25.60;82.90
4390;DHT22;2209;48.982;8.406;2023-06-26T08:40:29;25.60;83.10
4390;DHT22;2209;48.982;8.406;2023-06-26T08:42:52;25.60;83.10
4390;DHT22;2209;48.982;8.406;2023-06-26T08:45:14;25.60;83.00
4390;DHT22;2209;48.982;8.406;2023-06-26T08:47:37;25.60;83.40
4390;DHT22;2209;48.982;8.406;2023-06-26T08:50:06;25.60;84.10
4390;DHT22;2209;48.982;8.406;2023-06-26T08:52:33;25.60;83.60
4390;DHT22;2209;48.982;8.406;2023-06-26T08:54:58;25.60;84.10
4390;DHT22;2209;48.982;8.406;2023-06-26T08:57:23;25.60;84.20
4390;DHT22;2209;48.982;8.406;2023-06-26T08:59:46;25.60;84.40
4390;DHT22;2209;48.982;8.406;2023-06-26T09:02:08;25.60;84.70
4390;DHT22;2209;48.982;8.406;2023-06-26T09:04:31;25.60;85.00
4390;DHT22;2209;48.982;8.406;2023-06-26T09:06:54;25.60;85.10
4390;DHT22;2209;48.982;8.406;2023-06-26T09:09:16;25.70;85.00
4390;DHT22;2209;48.982;8.406;2023-06-26T09:11:38;25.70;85.30
4390;DHT22;2209;48.982;8.406;2023-06-26T09:14:01;25.70;85.20
4390;DHT22;2209;48.982;8.406;2023-06-26T09:16:26;25.70;84.90
4390;DHT22;2209;48.982;8.406;2023-06-26T09:18:48;25.70;84.70
4390;DHT22;2209;48.982;8.406;2023-06-26T09:21:12;25.70;84.60
4390;DHT22;2209;48.982;8.406;2023-06-26T09:23:35;25.80;84.60
4390;DHT22;2209;48.982;8.406;2023-06-26T09:25:58;25.80;85.30
4390;DHT22;2209;48.982;8.406;2023-06-26T09:28:20;25.80;84.80
4390;DHT22;2209;48.982;8.406;2023-06-26T09:30:44;25.80;85.00
4390;DHT22;2209;48.982;8.406;2023-06-26T09:33:14;25.80;85.50
4390;DHT22;2209;48.982;8.406;2023-06-26T09:35:36;25.80;85.50
4390;DHT22;2209;48.982;8.406;2023-06-26T09:37:58;25.80;85.80
4390;DHT22;2209;48.982;8.406;2023-06-26T09:40:20;25.80;85.90
4390;DHT22;2209;48.982;8.406;2023-06-26T09:42:42;25.80;86.20
4390;DHT22;2209;48.982;8.406;2023-06-26T09:45:05;25.70;85.90
4390;DHT22;2209;48.982;8.406;2023-06-26T09:47:30;25.70;86.00
4390;DHT22;2209;48.982;8.406;2023-06-26T09:49:52;25.70;86.10
4390;DHT22;2209;48.982;8.406;2023-06-26T09:52:17;25.70;86.60
4390;DHT22;2209;48.982;8.406;2023-06-26T09:54:39;25.70;86.70
4390;DHT22;2209;48.982;8.406;2023-06-26T09:57:08;25.70;87.00
4390;DHT22;2209;48.982;8.406;2023-06-26T09:59:30;25.70;87.60
4390;DHT22;2209;48.982;8.406;2023-06-26T10:01:59;25.60;87.60
4390;DHT22;2209;48.982;8.406;2023-06-26T10:04:22;25.60;87.60
4390;DHT22;2209;48.982;8.406;2023-06-26T10:06:46;25.60;87.80
4390;DHT22;2209;48.982;8.406;2023-06-26T10:09:09;25.60;88.70
4390;DHT22;2209;48.982;8.406;2023-06-26T10:11:36;25.60;88.20
4390;DHT22;2209;48.982;8.406;2023-06-26T10:14:01;25.60;88.40
4390;DHT22;2209;48.982;8.406;2023-06-26T10:16:26;25.60;88.80
4390;DHT22;2209;48.982;8.406;2023-06-26T10:18:52;25.60;89.20
4390;DHT22;2209;48.982;8.406;2023-06-26T10:21:17;25.70;89.60
4390;DHT22;2209;48.982;8.406;2023-06-26T10:23:41;25.70;89.50
4390;DHT22;2209;48.982;8.406;2023-06-26T10:26:08;25.70;89.70
4390;DHT22;2209;48.982;8.406;2023-06-26T10:28:32;25.70;89.70
4390;DHT22;2209;48.982;8.406;2023-06-26T10:30:55;25.70;89.90
4390;DHT22;2209;48.982;8.406;2023-06-26T10:33:19;25.80;90.10
4390;DHT22;2209;48.982;8.406;2023-06-26T10:35:42;25.80;90.10
4390;DHT22;2209;48.982;8.406;2023-06-26T10:38:06;25.80;90.00
4390;DHT22;2209;48.982;8.406;2023-06-26T10:40:33;25.90;89.50
4390;DHT22;2209;48.982;8.406;2023-06-26T10:43:08;25.90;88.70
4390;DHT22;2209;48.982;8.406;2023-06-26T10:45:30;25.90;88.10
4390;DHT22;2209;48.982;8.406;2023-06-26T10:47:54;25.90;87.80
4390;DHT22;2209;48.982;8.406;2023-06-26T10:50:20;26.00;88.00
4390;DHT22;2209;48.982;8.406;2023-06-26T10:52:43;26.00;87.80
4390;DHT22;2209;48.982;8.406;2023-06-26T10:55:09;26.10;87.60
4390;DHT22;2209;48.982;8.406;2023-06-26T10:57:31;26.10;87.50
4390;DHT22;2209;48.982;8.406;2023-06-26T11:00:09;26.10;87.50
4390;DHT22;2209;48.982;8.406;2023-06-26T11:02:47;26.20;87.60
4390;DHT22;2209;48.982;8.406;2023-06-26T11:05:09;26.20;87.90
4390;DHT22;2209;48.982;8.406;2023-06-26T11:07:31;26.30;87.70
4390;DHT22;2209;48.982;8.406;2023-06-26T11:09:58;26.30;87.70
4390;DHT22;2209;48.982;8.406;2023-06-26T11:12:36;26.40;87.20
4390;DHT22;2209;48.982;8.406;2023-06-26T11:14:58;26.40;86.80
4390;DHT22;2209;48.982;8.406;2023-06-26T11:17:25;26.40;87.30
4390;DHT22;2209;48.982;8.406;2023-06-26T11:19:47;26.40;87.20
4390;DHT22;2209;48.982;8.406;2023-06-26T11:22:10;26.40;86.40
4390;DHT22;2209;48.982;8.406;2023-06-26T11:24:33;26.40;86.60
4390;DHT22;2209;48.982;8.406;2023-06-26T11:27:00;26.40;86.70
4390;DHT22;2209;48.982;8.406;2023-06-26T11:29:24;26.40;86.80
4390;DHT22;2209;48.982;8.406;2023-06-26T11:31:46;26.40;86.60
4390;DHT22;2209;48.982;8.406;2023-06-26T11:34:10;26.50;85.50
4390;DHT22;2209;48.982;8.406;2023-06-26T11:36:32;26.50;85.20
4390;DHT22;2209;48.982;8.406;2023-06-26T11:38:59;26.50;85.40
4390;DHT22;2209;48.982;8.406;2023-06-26T11:41:22;26.50;86.10
4390;DHT22;2209;48.982;8.406;2023-06-26T11:43:44;26.50;84.60
4390;DHT22;2209;48.982;8.406;2023-06-26T11:46:08;26.50;83.80
4390;DHT22;2209;48.982;8.406;2023-06-26T11:48:30;26.40;82.80
4390;DHT22;2209;48.982;8.406;2023-06-26T11:50:52;26.40;83.00
4390;DHT22;2209;48.982;8.406;2023-06-26T11:53:15;26.40;83.10
4390;DHT22;2209;48.982;8.406;2023-06-26T11:55:41;26.40;81.80
4390;DHT22;2209;48.982;8.406;2023-06-26T11:58:04;26.50;82.00
4390;DHT22;2209;48.982;8.406;2023-06-26T12:00:26;26.50;81.50
4390;DHT22;2209;48.982;8.406;2023-06-26T12:02:49;26.50;81.30
4390;DHT22;2209;48.982;8.406;2023-06-26T12:05:13;26.50;80.80
4390;DHT22;2209;48.982;8.406;2023-06-26T12:07:36;26.60;80.30
4390;DHT22;2209;48.982;8.406;2023-06-26T12:09:58;26.60;79.80
4390;DHT22;2209;48.982;8.406;2023-06-26T12:12:22;26.60;79.50
4390;DHT22;2209;48.982;8.406;2023-06-26T12:14:44;26.60;79.40
4390;DHT22;2209;48.982;8.406;2023-06-26T12:17:09;26.60;78.90
4390;DHT22;2209;48.982;8.406;2023-06-26T12:19:33;26.60;77.70
4390;DHT22;2209;48.982;8.406;2023-06-26T12:21:55;26.60;77.30
4390;DHT22;2209;48.982;8.406;2023-06-26T12:24:19;26.70;76.80
4390;DHT22;2209;48.982;8.406;2023-06-26T12:26:43;26.70;76.50
4390;DHT22;2209;48.982;8.406;2023-06-26T12:29:06;26.70;76.30
4390;DHT22;2209;48.982;8.406;2023-06-26T12:31:28;26.70;76.50
4390;DHT22;2209;48.982;8.406;2023-06-26T12:33:52;26.80;75.50
4390;DHT22;2209;48.982;8.406;2023-06-26T12:36:15;26.80;74.40
4390;DHT22;2209;48.982;8.406;2023-06-26T12:38:38;26.80;74.10
4390;DHT22;2209;48.982;8.406;2023-06-26T12:41:00;26.80;73.70
4390;DHT22;2209;48.982;8.406;2023-06-26T12:43:26;26.90;73.80
4390;DHT22;2209;48.982;8.406;2023-06-26T12:45:48;26.90;74.10
4390;DHT22;2209;48.982;8.406;2023-06-26T12:48:11;27.00;73.70
4390;DHT22;2209;48.982;8.406;2023-06-26T12:50:37;27.00;73.50
4390;DHT22;2209;48.982;8.406;2023-06-26T12:53:01;27.00;73.70
4390;DHT22;2209;48.982;8.406;2023-06-26T12:55:23;27.10;73.90
4390;DHT22;2209;48.982;8.406;2023-06-26T12:57:45;27.10;73.00
4390;DHT22;2209;48.982;8.406;2023-06-26T13:00:08;27.20;73.00
4390;DHT22;2209;48.982;8.406;2023-06-26T13:02:31;27.10;73.10
4390;DHT22;2209;48.982;8.406;2023-06-26T13:04:53;27.20;73.40
4390;DHT22;2209;48.982;8.406;2023-06-26T13:07:15;27.20;73.20
4390;DHT22;2209;48.982;8.406;2023-06-26T13:09:38;27.20;73.10
4390;DHT22;2209;48.982;8.406;2023-06-26T13:12:02;27.20;73.00
4390;DHT22;2209;48.982;8.406;2023-06-26T13:14:24;27.20;72.70
4390;DHT22;2209;48.982;8.406;2023-06-26T13:16:46;27.20;72.50
4390;DHT22;2209;48.982;8.406;2023-06-26T13:19:09;27.30;72.60
4390;DHT22;2209;48.982;8.406;2023-06-26T13:21:31;27.30;72.40
4390;DHT22;2209;48.982;8.406;2023-06-26T13:23:53;27.30;71.80
4390;DHT22;2209;48.982;8.406;2023-06-26T13:26:18;27.40;71.30
4390;DHT22;2209;48.982;8.406;2023-06-26T13:28:40;27.40;71.30
4390;DHT22;2209;48.982;8.406;2023-06-26T13:31:03;27.40;71.60
4390;DHT22;2209;48.982;8.406;2023-06-26T13:33:25;27.50;71.30
4390;DHT22;2209;48.982;8.406;2023-06-26T13:35:47;27.50;71.50
4390;DHT22;2209;48.982;8.406;2023-06-26T13:38:09;27.60;70.80
4390;DHT22;2209;48.982;8.406;2023-06-26T13:40:31;27.60;70.30
4390;DHT22;2209;48.982;8.406;2023-06-26T13:42:54;27.60;70.30
4390;DHT22;2209;48.982;8.406;2023-06-26T13:45:16;27.70;70.30
4390;DHT22;2209;48.982;8.406;2023-06-26T13:47:38;27.60;70.30
4390;DHT22;2209;48.982;8.406;2023-06-26T13:50:02;27.70;71.00
4390;DHT22;2209;48.982;8.406;2023-06-26T13:52:24;27.70;70.80
4390;DHT22;2209;48.982;8.406;2023-06-26T13:54:46;27.70;70.20
4390;DHT22;2209;48.982;8.406;2023-06-26T13:57:08;27.70;69.60
4390;DHT22;2209;48.982;8.406;2023-06-26T13:59:31;27.80;70.80
4390;DHT22;2209;48.982;8.406;2023-06-26T14:01:54;27.80;70.50
4390;DHT22;2209;48.982;8.406;2023-06-26T14:04:16;27.90;70.50
4390;DHT22;2209;48.982;8.406;2023-06-26T14:06:38;27.90;70.40
4390;DHT22;2209;48.982;8.406;2023-06-26T14:09:00;27.90;70.30
4390;DHT22;2209;48.982;8.406;2023-06-26T14:11:23;28.00;70.90
4390;DHT22;2209;48.982;8.406;2023-06-26T14:13:46;28.00;70.30
4390;DHT22;2209;48.982;8.406;2023-06-26T14:16:09;28.10;70.20
4390;DHT22;2209;48.982;8.406;2023-06-26T14:18:31;28.10;70.00
4390;DHT22;2209;48.982;8.406;2023-06-26T14:20:53;28.10;69.80
4390;DHT22;2209;48.982;8.406;2023-06-26T14:23:15;28.10;70.20
4390;DHT22;2209;48.982;8.406;2023-06-26T14:25:37;28.20;70.30
4390;DHT22;2209;48.982;8.406;2023-06-26T14:28:00;28.20;69.80
4390;DHT22;2209;48.982;8.406;2023-06-26T14:30:22;28.20;69.70
4390;DHT22;2209;48.982;8.406;2023-06-26T14:32:45;28.20;69.80
4390;DHT22;2209;48.982;8.406;2023-06-26T14:35:08;28.20;69.20
4390;DHT22;2209;48.982;8.406;2023-06-26T14:37:30;28.20;69.90
4390;DHT22;2209;48.982;8.406;2023-06-26T14:39:52;28.20;67.70
4390;DHT22;2209;48.982;8.406;2023-06-26T14:42:14;28.20;67.40
4390;DHT22;2209;48.982;8.406;2023-06-26T14:44:36;28.20;67.40
4390;DHT22;2209;48.982;8.406;2023-06-26T14:46:58;28.30;67.50
4390;DHT22;2209;48.982;8.406;2023-06-26T14:49:22;28.30;67.30
4390;DHT22;2209;48.982;8.406;2023-06-26T14:51:44;28.30;66.90
4390;DHT22;2209;48.982;8.406;2023-06-26T14:54:06;28.30;65.80
4390;DHT22;2209;48.982;8.406;2023-06-26T14:56:29;28.30;66.30
4390;DHT22;2209;48.982;8.406;2023-06-26T14:58:51;28.40;66.10
4390;DHT22;2209;48.982;8.406;2023-06-26T15:01:14;28.40;66.20
4390;DHT22;2209;48.982;8.406;2023-06-26T15:03:36;28.40;65.10
4390;DHT22;2209;48.982;8.406;2023-06-26T15:06:00;28.40;64.00
4390;DHT22;2209;48.982;8.406;2023-06-26T15:08:22;28.50;63.40
4390;DHT22;2209;48.982;8.406;2023-06-26T15:10:44;28.50;63.30
4390;DHT22;2209;48.982;8.406;2023-06-26T15:13:06;28.50;61.70
4390;DHT22;2209;48.982;8.406;2023-06-26T15:15:29;28.50;59.70
4390;DHT22;2209;48.982;8.406;2023-06-26T15:17:51;28.50;59.50
4390;DHT22;2209;48.982;8.406;2023-06-26T15:20:13;28.60;58.40
4390;DHT22;2209;48.982;8.406;2023-06-26T15:22:36;28.50;58.10
4390;DHT22;2209;48.982;8.406;2023-06-26T15:24:59;28.50;58.30
4390;DHT22;2209;48.982;8.406;2023-06-26T15:27:21;28.50;58.10
4390;DHT22;2209;48.982;8.406;2023-06-26T15:29:43;28.60;55.80
4390;DHT22;2209;48.982;8.406;2023-06-26T15:32:06;28.60;54.00
4390;DHT22;2209;48.982;8.406;2023-06-26T15:34:28;28.60;53.60
4390;DHT22;2209;48.982;8.406;2023-06-26T15:36:50;28.60;52.90
4390;DHT22;2209;48.982;8.406;2023-06-26T15:39:14;28.60;52.30